sensor_id;sensor_type;location;lat;lon;timestamp;pressure;altitude;pressure_sealevel;temperature
15170;BMP280;7685;47.406;8.540;2024-01-11T00:00:58;96965.75;;;2.51
15170;BMP280;7685;47.406;8.540;2024-01-11T00:03:25;96967.41;;;2.54
15170;BMP280;7685;47.406;8.540;2024-01-11T00:05:52;96970.03;;;2.54
15170;BMP280;7685;47.406;8.540;2024-01-11T00:08:23;96964.53;;;2.52
15170;BMP280;7685;47.406;8.540;2024-01-11T00:10:49;96966.00;;;2.53
15170;BMP280;7685;47.406;8.540;2024-01-11T00:13:16;96972.66;;;2.54
15170;BMP280;7685;47.406;8.540;2024-01-11T00:15:42;96961.94;;;2.52
15170;BMP280;7685;47.406;8.540;2024-01-11T00:18:08;96972.66;;;2.54
15170;BMP280;7685;47.406;8.540;2024-01-11T00:20:35;96970.03;;;2.54
15170;BMP280;7685;47.406;8.540;2024-01-11T00:23:02;96970.03;;;2.54
15170;BMP280;7685;47.406;8.540;2024-01-11T00:25:28;96969.56;;;2.55
15170;BMP280;7685;47.406;8.540;2024-01-11T00:27:55;96974.06;;;2.55
15170;BMP280;7685;47.406;8.540;2024-01-11T00:30:21;96974.56;;;2.53
15170;BMP280;7685;47.406;8.540;2024-01-11T00:32:49;96964.31;;;2.50
15170;BMP280;7685;47.406;8.540;2024-01-11T00:35:16;96974.31;;;2.51
15170;BMP280;7685;47.406;8.540;2024-01-11T00:37:42;96969.56;;;2.50
15170;BMP280;7685;47.406;8.540;2024-01-11T00:40:09;96966.25;;;2.49
15170;BMP280;7685;47.406;8.540;2024-01-11T00:42:36;96965.53;;;2.49
15170;BMP280;7685;47.406;8.540;2024-01-11T00:45:02;96970.03;;;2.48
15170;BMP280;7685;47.406;8.540;2024-01-11T00:47:29;96964.78;;;2.48
15170;BMP280;7685;47.406;8.540;2024-01-11T00:49:55;96969.31;;;2.48
15170;BMP280;7685;47.406;8.540;2024-01-11T00:52:22;96974.09;;;2.49
15170;BMP280;7685;47.406;8.540;2024-01-11T00:54:49;96971.25;;;2.47
15170;BMP280;7685;47.406;8.540;2024-01-11T00:57:15;96978.66;;;2.49
15170;BMP280;7685;47.406;8.540;2024-01-11T00:59:44;96980.06;;;2.50
15170;BMP280;7685;47.406;8.540;2024-01-11T01:02:10;96976.72;;;2.49
15170;BMP280;7685;47.406;8.540;2024-01-11T01:04:38;96982.44;;;2.53
15170;BMP280;7685;47.406;8.540;2024-01-11T01:07:05;96977.91;;;2.54
15170;BMP280;7685;47.406;8.540;2024-01-11T01:09:34;96977.91;;;2.54
15170;BMP280;7685;47.406;8.540;2024-01-11T01:12:01;96983.16;;;2.54
15170;BMP280;7685;47.406;8.540;2024-01-11T01:14:28;96980.78;;;2.56
15170;BMP280;7685;47.406;8.540;2024-01-11T01:16:54;96987.44;;;2.57
15170;BMP280;7685;47.406;8.540;2024-01-11T01:19:21;96986.72;;;2.56
15170;BMP280;7685;47.406;8.540;2024-01-11T01:21:47;96992.69;;;2.57
15170;BMP280;7685;47.406;8.540;2024-01-11T01:24:13;96993.88;;;2.56
15170;BMP280;7685;47.406;8.540;2024-01-11T01:26:40;96999.34;;;2.58
15170;BMP280;7685;47.406;8.540;2024-01-11T01:29:06;96998.63;;;2.57
15170;BMP280;7685;47.406;8.540;2024-01-11T01:31:33;97001.97;;;2.58
15170;BMP280;7685;47.406;8.540;2024-01-11T01:34:03;97006.03;;;2.59
15170;BMP280;7685;47.406;8.540;2024-01-11T01:36:31;97000.56;;;2.57
15170;BMP280;7685;47.406;8.540;2024-01-11T01:38:58;97000.09;;;2.58
15170;BMP280;7685;47.406;8.540;2024-01-11T01:41:24;97009.84;;;2.58
15170;BMP280;7685;47.406;8.540;2024-01-11T01:43:50;97011.28;;;2.59
15170;BMP280;7685;47.406;8.540;2024-01-11T01:46:22;97006.03;;;2.59
15170;BMP280;7685;47.406;8.540;2024-01-11T01:48:50;97014.63;;;2.59
15170;BMP280;7685;47.406;8.540;2024-01-11T01:51:17;97010.56;;;2.58
15170;BMP280;7685;47.406;8.540;2024-01-11T01:53:44;97021.06;;;2.58
15170;BMP280;7685;47.406;8.540;2024-01-11T01:56:11;97022.94;;;2.58
15170;BMP280;7685;47.406;8.540;2024-01-11T01:58:42;97016.53;;;2.59
15170;BMP280;7685;47.406;8.540;2024-01-11T02:01:09;97009.63;;;2.56
15170;BMP280;7685;47.406;8.540;2024-01-11T02:03:37;97015.81;;;2.58
15170;BMP280;7685;47.406;8.540;2024-01-11T02:06:05;97025.56;;;2.58
15170;BMP280;7685;47.406;8.540;2024-01-11T02:08:32;97029.41;;;2.57
15170;BMP280;7685;47.406;8.540;2024-01-11T02:11:01;97027.97;;;2.56
15170;BMP280;7685;47.406;8.540;2024-01-11T02:13:28;97020.34;;;2.58
15170;BMP280;7685;47.406;8.540;2024-01-11T02:15:54;97030.13;;;2.57
15170;BMP280;7685;47.406;8.540;2024-01-11T02:18:21;97029.16;;;2.55
15170;BMP280;7685;47.406;8.540;2024-01-11T02:20:48;97028.94;;;2.53
15170;BMP280;7685;47.406;8.540;2024-01-11T02:23:17;97031.31;;;2.51
15170;BMP280;7685;47.406;8.540;2024-01-11T02:25:46;97034.41;;;2.49
15170;BMP280;7685;47.406;8.540;2024-01-11T02:28:12;97031.81;;;2.49
15170;BMP280;7685;47.406;8.540;2024-01-11T02:30:39;97032.50;;;2.50
15170;BMP280;7685;47.406;8.540;2024-01-11T02:33:05;97031.81;;;2.49
15170;BMP280;7685;47.406;8.540;2024-01-11T02:35:33;97025.84;;;2.49
15170;BMP280;7685;47.406;8.540;2024-01-11T02:38:00;97030.59;;;2.50
15170;BMP280;7685;47.406;8.540;2024-01-11T02:40:28;97035.13;;;2.50
15170;BMP280;7685;47.406;8.540;2024-01-11T02:42:55;97035.13;;;2.50
15170;BMP280;7685;47.406;8.540;2024-01-11T02:45:21;97029.19;;;2.49
15170;BMP280;7685;47.406;8.540;2024-01-11T02:47:48;97031.09;;;2.49
15170;BMP280;7685;47.406;8.540;2024-01-11T02:50:15;97033.72;;;2.49
15170;BMP280;7685;47.406;8.540;2024-01-11T02:52:41;97032.25;;;2.48
15170;BMP280;7685;47.406;8.540;2024-01-11T02:55:08;97039.66;;;2.49
15170;BMP280;7685;47.406;8.540;2024-01-11T02:57:35;97021.56;;;2.46
15170;BMP280;7685;47.406;8.540;2024-01-11T03:00:01;97033.47;;;2.47
15170;BMP280;7685;47.406;8.540;2024-01-11T03:02:28;97025.84;;;2.43
15170;BMP280;7685;47.406;8.540;2024-01-11T03:04:55;97019.38;;;2.38
15170;BMP280;7685;47.406;8.540;2024-01-11T03:07:22;97022.25;;;2.41
15170;BMP280;7685;47.406;8.540;2024-01-11T03:09:48;97021.06;;;2.42
15170;BMP280;7685;47.406;8.540;2024-01-11T03:12:15;97017.00;;;2.41
15170;BMP280;7685;47.406;8.540;2024-01-11T03:14:41;97011.53;;;2.38
15170;BMP280;7685;47.406;8.540;2024-01-11T03:17:07;97012.72;;;2.37
15170;BMP280;7685;47.406;8.540;2024-01-11T03:19:39;97011.06;;;2.40
15170;BMP280;7685;47.406;8.540;2024-01-11T03:22:05;97017.72;;;2.41
15170;BMP280;7685;47.406;8.540;2024-01-11T03:24:33;97008.91;;;2.38
15170;BMP280;7685;47.406;8.540;2024-01-11T03:26:59;97010.56;;;2.42
15170;BMP280;7685;47.406;8.540;2024-01-11T03:29:26;97006.53;;;2.41
15170;BMP280;7685;47.406;8.540;2024-01-11T03:31:52;97001.28;;;2.41
15170;BMP280;7685;47.406;8.540;2024-01-11T03:34:19;97008.66;;;2.42
15170;BMP280;7685;47.406;8.540;2024-01-11T03:36:45;97002.69;;;2.42
15170;BMP280;7685;47.406;8.540;2024-01-11T03:39:11;97007.94;;;2.42
15170;BMP280;7685;47.406;8.540;2024-01-11T03:41:45;97008.66;;;2.42
15170;BMP280;7685;47.406;8.540;2024-01-11T03:44:12;97002.94;;;2.44
15170;BMP280;7685;47.406;8.540;2024-01-11T03:46:41;97004.16;;;2.43
15170;BMP280;7685;47.406;8.540;2024-01-11T03:49:07;97008.19;;;2.44
15170;BMP280;7685;47.406;8.540;2024-01-11T03:51:34;97015.09;;;2.41
15170;BMP280;7685;47.406;8.540;2024-01-11T03:54:01;97011.78;;;2.41
15170;BMP280;7685;47.406;8.540;2024-01-11T03:56:27;97008.44;;;2.40
15170;BMP280;7685;47.406;8.540;2024-01-11T03:58:54;97009.16;;;2.41
15170;BMP280;7685;47.406;8.540;2024-01-11T04:01:21;97007.47;;;2.37
15170;BMP280;7685;47.406;8.540;2024-01-11T04:03:47;97003.66;;;2.38
15170;BMP280;7685;47.406;8.540;2024-01-11T04:06:21;97008.19;;;2.38
15170;BMP280;7685;47.406;8.540;2024-01-11T04:08:48;97010.81;;;2.38
15170;BMP280;7685;47.406;8.540;2024-01-11T04:11:14;97003.66;;;2.38
15170;BMP280;7685;47.406;8.540;2024-01-11T04:13:41;97008.91;;;2.38
15170;BMP280;7685;47.406;8.540;2024-01-11T04:16:08;96998.91;;;2.37
15170;BMP280;7685;47.406;8.540;2024-01-11T04:18:34;96996.28;;;2.37
15170;BMP280;7685;47.406;8.540;2024-01-11T04:21:01;96996.28;;;2.37
15170;BMP280;7685;47.406;8.540;2024-01-11T04:23:27;96994.13;;;2.35
15170;BMP280;7685;47.406;8.540;2024-01-11T04:25:54;96998.66;;;2.35
15170;BMP280;7685;47.406;8.540;2024-01-11T04:28:20;96996.03;;;2.35
15170;BMP280;7685;47.406;8.540;2024-01-11T04:30:47;96993.41;;;2.35
15170;BMP280;7685;47.406;8.540;2024-01-11T04:33:13;96994.13;;;2.35
15170;BMP280;7685;47.406;8.540;2024-01-11T04:35:40;96995.56;;;2.36
15170;BMP280;7685;47.406;8.540;2024-01-11T04:38:07;96997.00;;;2.37
15170;BMP280;7685;47.406;8.540;2024-01-11T04:40:33;96993.16;;;2.38
15170;BMP280;7685;47.406;8.540;2024-01-11T04:43:00;96987.94;;;2.38
15170;BMP280;7685;47.406;8.540;2024-01-11T04:45:26;96994.84;;;2.42
15170;BMP280;7685;47.406;8.540;2024-01-11T04:47:52;96987.94;;;2.38
15170;BMP280;7685;47.406;8.540;2024-01-11T04:50:19;96995.31;;;2.40
15170;BMP280;7685;47.406;8.540;2024-01-11T04:52:48;96993.91;;;2.39
15170;BMP280;7685;47.406;8.540;2024-01-11T04:55:15;96985.31;;;2.38
15170;BMP280;7685;47.406;8.540;2024-01-11T04:57:41;96997.25;;;2.40
15170;BMP280;7685;47.406;8.540;2024-01-11T05:00:11;96985.09;;;2.36
15170;BMP280;7685;47.406;8.540;2024-01-11T05:02:38;96977.44;;;2.38
15170;BMP280;7685;47.406;8.540;2024-01-11T05:05:04;96986.03;;;2.39
15170;BMP280;7685;47.406;8.540;2024-01-11T05:07:31;96982.69;;;2.38
15170;BMP280;7685;47.406;8.540;2024-01-11T05:09:57;96988.19;;;2.41
15170;BMP280;7685;47.406;8.540;2024-01-11T05:12:24;96984.13;;;2.40
15170;BMP280;7685;47.406;8.540;2024-01-11T05:14:50;96985.78;;;2.37
15170;BMP280;7685;47.406;8.540;2024-01-11T05:17:17;96991.50;;;2.35
15170;BMP280;7685;47.406;8.540;2024-01-11T05:19:44;96987.94;;;2.33
15170;BMP280;7685;47.406;8.540;2024-01-11T05:22:10;96981.25;;;2.32
15170;BMP280;7685;47.406;8.540;2024-01-11T05:24:37;96983.16;;;2.31
15170;BMP280;7685;47.406;8.540;2024-01-11T05:27:03;96976.25;;;2.34
15170;BMP280;7685;47.406;8.540;2024-01-11T05:29:30;96980.78;;;2.33
15170;BMP280;7685;47.406;8.540;2024-01-11T05:31:57;96977.94;;;2.31
15170;BMP280;7685;47.406;8.540;2024-01-11T05:34:23;96977.00;;;2.29
15170;BMP280;7685;47.406;8.540;2024-01-11T05:36:50;96979.84;;;2.25
15170;BMP280;7685;47.406;8.540;2024-01-11T05:39:16;96986.75;;;2.23
15170;BMP280;7685;47.406;8.540;2024-01-11T05:41:44;96982.97;;;2.18
15170;BMP280;7685;47.406;8.540;2024-01-11T05:44:14;96984.16;;;2.11
15170;BMP280;7685;47.406;8.540;2024-01-11T05:47:04;96982.25;;;2.12
15170;BMP280;7685;47.406;8.540;2024-01-11T05:49:31;96987.72;;;2.08
15170;BMP280;7685;47.406;8.540;2024-01-11T05:51:57;96989.16;;;2.09
15170;BMP280;7685;47.406;8.540;2024-01-11T05:54:23;96989.88;;;2.10
15170;BMP280;7685;47.406;8.540;2024-01-11T05:56:50;96980.13;;;2.10
15170;BMP280;7685;47.406;8.540;2024-01-11T05:59:22;96981.06;;;2.13
15170;BMP280;7685;47.406;8.540;2024-01-11T06:01:49;96981.53;;;2.11
15170;BMP280;7685;47.406;8.540;2024-01-11T06:04:15;96982.25;;;2.12
15170;BMP280;7685;47.406;8.540;2024-01-11T06:06:42;96981.78;;;2.13
15170;BMP280;7685;47.406;8.540;2024-01-11T06:09:09;96986.53;;;2.15
15170;BMP280;7685;47.406;8.540;2024-01-11T06:11:36;96992.75;;;2.18
15170;BMP280;7685;47.406;8.540;2024-01-11T06:14:02;96988.22;;;2.18
15170;BMP280;7685;47.406;8.540;2024-01-11T06:16:29;96996.56;;;2.17
15170;BMP280;7685;47.406;8.540;2024-01-11T06:18:55;96996.06;;;2.18
15170;BMP280;7685;47.406;8.540;2024-01-11T06:21:22;96998.69;;;2.18
15170;BMP280;7685;47.406;8.540;2024-01-11T06:23:48;97004.19;;;2.20
15170;BMP280;7685;47.406;8.540;2024-01-11T06:26:15;96999.66;;;2.21
15170;BMP280;7685;47.406;8.540;2024-01-11T06:28:42;97005.59;;;2.21
15170;BMP280;7685;47.406;8.540;2024-01-11T06:31:11;97007.28;;;2.24
15170;BMP280;7685;47.406;8.540;2024-01-11T06:33:42;96998.69;;;2.24
15170;BMP280;7685;47.406;8.540;2024-01-11T06:36:09;97006.78;;;2.26
15170;BMP280;7685;47.406;8.540;2024-01-11T06:38:35;97015.59;;;2.28
15170;BMP280;7685;47.406;8.540;2024-01-11T06:41:02;97007.28;;;2.30
15170;BMP280;7685;47.406;8.540;2024-01-11T06:43:29;97013.94;;;2.31
15170;BMP280;7685;47.406;8.540;2024-01-11T06:45:55;97013.94;;;2.31
15170;BMP280;7685;47.406;8.540;2024-01-11T06:48:22;97007.00;;;2.33
15170;BMP280;7685;47.406;8.540;2024-01-11T06:50:49;97015.59;;;2.34
15170;BMP280;7685;47.406;8.540;2024-01-11T06:53:15;97020.34;;;2.35
15170;BMP280;7685;47.406;8.540;2024-01-11T06:55:42;97017.72;;;2.35
15170;BMP280;7685;47.406;8.540;2024-01-11T06:58:11;97025.59;;;2.35
15170;BMP280;7685;47.406;8.540;2024-01-11T07:00:37;97032.28;;;2.36
15170;BMP280;7685;47.406;8.540;2024-01-11T07:03:10;97030.84;;;2.35
15170;BMP280;7685;47.406;8.540;2024-01-11T07:05:37;97036.31;;;2.37
15170;BMP280;7685;47.406;8.540;2024-01-11T07:08:03;97034.91;;;2.36
15170;BMP280;7685;47.406;8.540;2024-01-11T07:10:30;97038.94;;;2.37
15170;BMP280;7685;47.406;8.540;2024-01-11T07:12:56;97040.63;;;2.41
15170;BMP280;7685;47.406;8.540;2024-01-11T07:15:23;97051.09;;;2.41
15170;BMP280;7685;47.406;8.540;2024-01-11T07:17:50;97045.16;;;2.40
15170;BMP280;7685;47.406;8.540;2024-01-11T07:20:16;97048.47;;;2.41
15170;BMP280;7685;47.406;8.540;2024-01-11T07:22:45;97045.84;;;2.41
15170;BMP280;7685;47.406;8.540;2024-01-11T07:25:12;97043.22;;;2.41
15170;BMP280;7685;47.406;8.540;2024-01-11T07:27:40;97053.72;;;2.41
15170;BMP280;7685;47.406;8.540;2024-01-11T07:30:07;97045.38;;;2.36
15170;BMP280;7685;47.406;8.540;2024-01-11T07:32:34;97052.06;;;2.37
15170;BMP280;7685;47.406;8.540;2024-01-11T07:35:01;97053.25;;;2.36
15170;BMP280;7685;47.406;8.540;2024-01-11T07:37:28;97054.91;;;2.34
15170;BMP280;7685;47.406;8.540;2024-01-11T07:39:54;97063.25;;;2.32
15170;BMP280;7685;47.406;8.540;2024-01-11T07:42:20;97061.81;;;2.31
15170;BMP280;7685;47.406;8.540;2024-01-11T07:44:47;97069.94;;;2.33
15170;BMP280;7685;47.406;8.540;2024-01-11T07:47:13;97066.13;;;2.34
15170;BMP280;7685;47.406;8.540;2024-01-11T07:49:40;97070.91;;;2.36
15170;BMP280;7685;47.406;8.540;2024-01-11T07:52:06;97074.94;;;2.37
15170;BMP280;7685;47.406;8.540;2024-01-11T07:54:33;97074.69;;;2.35
15170;BMP280;7685;47.406;8.540;2024-01-11T07:56:59;97078.75;;;2.36
15170;BMP280;7685;47.406;8.540;2024-01-11T07:59:26;97073.97;;;2.34
15170;BMP280;7685;47.406;8.540;2024-01-11T08:01:52;97073.97;;;2.34
15170;BMP280;7685;47.406;8.540;2024-01-11T08:04:20;97071.84;;;2.33
15170;BMP280;7685;47.406;8.540;2024-01-11T08:06:46;97082.78;;;2.31
15170;BMP280;7685;47.406;8.540;2024-01-11T08:09:13;97094.25;;;2.28
15170;BMP280;7685;47.406;8.540;2024-01-11T08:11:40;97102.13;;;2.28
15170;BMP280;7685;47.406;8.540;2024-01-11T08:14:14;97096.41;;;2.24
15170;BMP280;7685;47.406;8.540;2024-01-11T08:16:40;97101.16;;;2.26
15170;BMP280;7685;47.406;8.540;2024-01-11T08:19:07;97107.16;;;2.26
15170;BMP280;7685;47.406;8.540;2024-01-11T08:21:33;97106.66;;;2.28
15170;BMP280;7685;47.406;8.540;2024-01-11T08:24:00;97106.91;;;2.30
15170;BMP280;7685;47.406;8.540;2024-01-11T08:26:29;97110.44;;;2.32
15170;BMP280;7685;47.406;8.540;2024-01-11T08:28:56;97108.56;;;2.33
15170;BMP280;7685;47.406;8.540;2024-01-11T08:31:23;97107.34;;;2.34
15170;BMP280;7685;47.406;8.540;2024-01-11T08:33:49;97112.59;;;2.34
15170;BMP280;7685;47.406;8.540;2024-01-11T08:36:16;97106.66;;;2.33
15170;BMP280;7685;47.406;8.540;2024-01-11T08:38:44;97103.78;;;2.31
15170;BMP280;7685;47.406;8.540;2024-01-11T08:41:10;97112.38;;;2.37
15170;BMP280;7685;47.406;8.540;2024-01-11T08:43:36;97107.13;;;2.37
15170;BMP280;7685;47.406;8.540;2024-01-11T08:46:04;97108.09;;;2.40
15170;BMP280;7685;47.406;8.540;2024-01-11T08:48:30;97108.78;;;2.41
15170;BMP280;7685;47.406;8.540;2024-01-11T08:50:57;97109.25;;;2.45
15170;BMP280;7685;47.406;8.540;2024-01-11T08:53:24;97107.84;;;2.44
15170;BMP280;7685;47.406;8.540;2024-01-11T08:55:50;97111.88;;;2.45
15170;BMP280;7685;47.406;8.540;2024-01-11T08:58:16;97100.69;;;2.44
15170;BMP280;7685;47.406;8.540;2024-01-11T09:00:43;97104.28;;;2.47
15170;BMP280;7685;47.406;8.540;2024-01-11T09:03:10;97110.47;;;2.44
15170;BMP280;7685;47.406;8.540;2024-01-11T09:05:39;97109.25;;;2.45
15170;BMP280;7685;47.406;8.540;2024-01-11T09:08:06;97113.09;;;2.44
15170;BMP280;7685;47.406;8.540;2024-01-11T09:10:33;97117.84;;;2.45
15170;BMP280;7685;47.406;8.540;2024-01-11T09:13:00;97113.78;;;2.44
15170;BMP280;7685;47.406;8.540;2024-01-11T09:15:26;97117.38;;;2.47
15170;BMP280;7685;47.406;8.540;2024-01-11T09:17:53;97121.19;;;2.51
15170;BMP280;7685;47.406;8.540;2024-01-11T09:20:20;97115.22;;;2.51
15170;BMP280;7685;47.406;8.540;2024-01-11T09:22:46;97125.25;;;2.52
15170;BMP280;7685;47.406;8.540;2024-01-11T09:25:12;97129.06;;;2.51
15170;BMP280;7685;47.406;8.540;2024-01-11T09:27:39;97130.25;;;2.50
15170;BMP280;7685;47.406;8.540;2024-01-11T09:30:06;97127.38;;;2.48
15170;BMP280;7685;47.406;8.540;2024-01-11T09:32:33;97139.78;;;2.48
15170;BMP280;7685;47.406;8.540;2024-01-11T09:34:59;97144.31;;;2.47
15170;BMP280;7685;47.406;8.540;2024-01-11T09:37:26;97146.22;;;2.47
15170;BMP280;7685;47.406;8.540;2024-01-11T09:39:53;97150.06;;;2.46
15170;BMP280;7685;47.406;8.540;2024-01-11T09:42:19;97149.81;;;2.44
15170;BMP280;7685;47.406;8.540;2024-01-11T09:44:46;97150.50;;;2.38
15170;BMP280;7685;47.406;8.540;2024-01-11T09:47:15;97150.28;;;2.36
15170;BMP280;7685;47.406;8.540;2024-01-11T09:49:44;97140.50;;;2.37
15170;BMP280;7685;47.406;8.540;2024-01-11T09:52:15;97142.41;;;2.36
15170;BMP280;7685;47.406;8.540;2024-01-11T09:54:42;97133.81;;;2.36
15170;BMP280;7685;47.406;8.540;2024-01-11T09:57:09;97146.94;;;2.36
15170;BMP280;7685;47.406;8.540;2024-01-11T09:59:36;97134.28;;;2.34
15170;BMP280;7685;47.406;8.540;2024-01-11T10:02:03;97138.09;;;2.33
15170;BMP280;7685;47.406;8.540;2024-01-11T10:04:35;97134.28;;;2.34
15170;BMP280;7685;47.406;8.540;2024-01-11T10:07:04;97125.22;;;2.35
15170;BMP280;7685;47.406;8.540;2024-01-11T10:09:32;97134.28;;;2.34
15170;BMP280;7685;47.406;8.540;2024-01-11T10:11:58;97137.16;;;2.36
15170;BMP280;7685;47.406;8.540;2024-01-11T10:14:25;97137.88;;;2.37
15170;BMP280;7685;47.406;8.540;2024-01-11T10:16:54;97132.13;;;2.38
15170;BMP280;7685;47.406;8.540;2024-01-11T10:19:20;97139.06;;;2.36
15170;BMP280;7685;47.406;8.540;2024-01-11T10:21:48;97140.00;;;2.33
15170;BMP280;7685;47.406;8.540;2024-01-11T10:24:19;97141.69;;;2.36
15170;BMP280;7685;47.406;8.540;2024-01-11T10:26:47;97137.88;;;2.37
15170;BMP280;7685;47.406;8.540;2024-01-11T10:29:14;97137.16;;;2.36
15170;BMP280;7685;47.406;8.540;2024-01-11T10:31:40;97139.28;;;2.38
15170;BMP280;7685;47.406;8.540;2024-01-11T10:34:07;97141.44;;;2.34
15170;BMP280;7685;47.406;8.540;2024-01-11T10:36:34;97134.78;;;2.33
15170;BMP280;7685;47.406;8.540;2024-01-11T10:39:03;97126.16;;;2.32
15170;BMP280;7685;47.406;8.540;2024-01-11T10:41:39;97130.00;;;2.31
15170;BMP280;7685;47.406;8.540;2024-01-11T10:44:18;97131.22;;;2.30
15170;BMP280;7685;47.406;8.540;2024-01-11T10:46:47;97133.13;;;2.30
15170;BMP280;7685;47.406;8.540;2024-01-11T10:49:18;97141.00;;;2.30
15170;BMP280;7685;47.406;8.540;2024-01-11T10:51:49;97133.84;;;2.30
15170;BMP280;7685;47.406;8.540;2024-01-11T10:54:20;97141.69;;;2.30
15170;BMP280;7685;47.406;8.540;2024-01-11T10:56:47;97136.47;;;2.30
15170;BMP280;7685;47.406;8.540;2024-01-11T10:59:13;97142.41;;;2.31
15170;BMP280;7685;47.406;8.540;2024-01-11T11:01:40;97150.75;;;2.29
15170;BMP280;7685;47.406;8.540;2024-01-11T11:04:07;97148.34;;;2.31
15170;BMP280;7685;47.406;8.540;2024-01-11T11:06:37;97143.81;;;2.32
15170;BMP280;7685;47.406;8.540;2024-01-11T11:09:05;97144.06;;;2.34
15170;BMP280;7685;47.406;8.540;2024-01-11T11:11:34;97144.31;;;2.30
15170;BMP280;7685;47.406;8.540;2024-01-11T11:14:01;97137.16;;;2.31
15170;BMP280;7685;47.406;8.540;2024-01-11T11:16:27;97136.91;;;2.29
15170;BMP280;7685;47.406;8.540;2024-01-11T11:18:54;97131.69;;;2.29
15170;BMP280;7685;47.406;8.540;2024-01-11T11:21:21;97126.69;;;2.31
15170;BMP280;7685;47.406;8.540;2024-01-11T11:23:49;97128.34;;;2.34
15170;BMP280;7685;47.406;8.540;2024-01-11T11:26:16;97122.59;;;2.35
15170;BMP280;7685;47.406;8.540;2024-01-11T11:28:44;97122.59;;;2.35
15170;BMP280;7685;47.406;8.540;2024-01-11T11:31:11;97120.94;;;2.38
15170;BMP280;7685;47.406;8.540;2024-01-11T11:33:38;97118.31;;;2.38
15170;BMP280;7685;47.406;8.540;2024-01-11T11:36:04;97105.47;;;2.40
15170;BMP280;7685;47.406;8.540;2024-01-11T11:38:31;97108.09;;;2.40
15170;BMP280;7685;47.406;8.540;2024-01-11T11:41:00;97100.94;;;2.41
15170;BMP280;7685;47.406;8.540;2024-01-11T11:43:28;97103.78;;;2.43
15170;BMP280;7685;47.406;8.540;2024-01-11T11:45:54;97107.59;;;2.42
15170;BMP280;7685;47.406;8.540;2024-01-11T11:51:08;97095.69;;;2.41
15170;BMP280;7685;47.406;8.540;2024-01-11T11:53:39;97094.25;;;2.40
15170;BMP280;7685;47.406;8.540;2024-01-11T11:56:08;97099.00;;;2.41
15170;BMP280;7685;47.406;8.540;2024-01-11T11:58:38;97097.09;;;2.42
15170;BMP280;7685;47.406;8.540;2024-01-11T12:01:05;97084.00;;;2.42
15170;BMP280;7685;47.406;8.540;2024-01-11T12:03:37;97093.31;;;2.43
15170;BMP280;7685;47.406;8.540;2024-01-11T12:06:06;97083.03;;;2.45
15170;BMP280;7685;47.406;8.540;2024-01-11T12:08:34;97082.81;;;2.43
15170;BMP280;7685;47.406;8.540;2024-01-11T12:11:01;97086.38;;;2.45
15170;BMP280;7685;47.406;8.540;2024-01-11T12:13:28;97072.56;;;2.45
15170;BMP280;7685;47.406;8.540;2024-01-11T12:15:54;97065.41;;;2.45
15170;BMP280;7685;47.406;8.540;2024-01-11T12:18:24;97062.31;;;2.47
15170;BMP280;7685;47.406;8.540;2024-01-11T12:20:52;97070.44;;;2.49
15170;BMP280;7685;47.406;8.540;2024-01-11T12:23:21;97071.84;;;2.50
15170;BMP280;7685;47.406;8.540;2024-01-11T12:25:47;97067.06;;;2.48
15170;BMP280;7685;47.406;8.540;2024-01-11T12:28:14;97066.59;;;2.50
15170;BMP280;7685;47.406;8.540;2024-01-11T12:30:41;97073.06;;;2.49
15170;BMP280;7685;47.406;8.540;2024-01-11T12:33:13;97076.84;;;2.48
15170;BMP280;7685;47.406;8.540;2024-01-11T12:35:40;97086.88;;;2.49
15170;BMP280;7685;47.406;8.540;2024-01-11T12:38:07;97074.69;;;2.52
15170;BMP280;7685;47.406;8.540;2024-01-11T12:40:36;97080.19;;;2.54
15170;BMP280;7685;47.406;8.540;2024-01-11T12:43:07;97078.28;;;2.54
15170;BMP280;7685;47.406;8.540;2024-01-11T12:45:37;97077.56;;;2.54
15170;BMP280;7685;47.406;8.540;2024-01-11T12:48:06;97074.22;;;2.53
15170;BMP280;7685;47.406;8.540;2024-01-11T12:50:34;97076.16;;;2.53
15170;BMP280;7685;47.406;8.540;2024-01-11T12:55:35;97076.59;;;2.51
15170;BMP280;7685;47.406;8.540;2024-01-11T12:58:20;97069.44;;;2.52
15170;BMP280;7685;47.406;8.540;2024-01-11T13:00:53;97076.84;;;2.53
15170;BMP280;7685;47.406;8.540;2024-01-11T13:03:19;97083.53;;;2.54
15170;BMP280;7685;47.406;8.540;2024-01-11T13:05:47;97080.91;;;2.54
15170;BMP280;7685;47.406;8.540;2024-01-11T13:08:14;97088.06;;;2.54
15170;BMP280;7685;47.406;8.540;2024-01-11T13:10:42;97084.47;;;2.51
15170;BMP280;7685;47.406;8.540;2024-01-11T13:13:09;97093.78;;;2.52
15170;BMP280;7685;47.406;8.540;2024-01-11T13:15:36;97081.13;;;2.51
15170;BMP280;7685;47.406;8.540;2024-01-11T13:18:05;97082.34;;;2.50
15170;BMP280;7685;47.406;8.540;2024-01-11T13:20:32;97083.53;;;2.49
15170;BMP280;7685;47.406;8.540;2024-01-11T13:23:16;97084.00;;;2.47
15170;BMP280;7685;47.406;8.540;2024-01-11T13:25:45;97087.81;;;2.46
15170;BMP280;7685;47.406;8.540;2024-01-11T13:28:12;97093.78;;;2.47
15170;BMP280;7685;47.406;8.540;2024-01-11T13:30:40;97106.91;;;2.47
15170;BMP280;7685;47.406;8.540;2024-01-11T13:33:07;97098.78;;;2.45
15170;BMP280;7685;47.406;8.540;2024-01-11T13:35:35;97108.81;;;2.46
15170;BMP280;7685;47.406;8.540;2024-01-11T13:38:03;97094.97;;;2.46
15170;BMP280;7685;47.406;8.540;2024-01-11T13:40:31;97099.97;;;2.44
15170;BMP280;7685;47.406;8.540;2024-01-11T13:42:58;97104.03;;;2.45
15170;BMP280;7685;47.406;8.540;2024-01-11T13:45:25;97108.09;;;2.46
15170;BMP280;7685;47.406;8.540;2024-01-11T13:47:53;97103.06;;;2.42
15170;BMP280;7685;47.406;8.540;2024-01-11T13:50:24;97107.59;;;2.42
15170;BMP280;7685;47.406;8.540;2024-01-11T13:52:52;97111.66;;;2.43
15170;BMP280;7685;47.406;8.540;2024-01-11T13:55:19;97118.09;;;2.42
15170;BMP280;7685;47.406;8.540;2024-01-11T13:57:49;97115.94;;;2.40
15170;BMP280;7685;47.406;8.540;2024-01-11T14:00:17;97117.38;;;2.41
15170;BMP280;7685;47.406;8.540;2024-01-11T14:02:46;97113.31;;;2.40
15170;BMP280;7685;47.406;8.540;2024-01-11T14:05:14;97110.69;;;2.40
15170;BMP280;7685;47.406;8.540;2024-01-11T14:07:42;97122.38;;;2.39
15170;BMP280;7685;47.406;8.540;2024-01-11T14:10:13;97114.97;;;2.37
15170;BMP280;7685;47.406;8.540;2024-01-11T14:12:40;97120.22;;;2.37
15170;BMP280;7685;47.406;8.540;2024-01-11T14:15:08;97115.22;;;2.34
15170;BMP280;7685;47.406;8.540;2024-01-11T14:17:39;97116.88;;;2.31
15170;BMP280;7685;47.406;8.540;2024-01-11T14:20:07;97111.19;;;2.27
15170;BMP280;7685;47.406;8.540;2024-01-11T14:22:42;97123.34;;;2.25
15170;BMP280;7685;47.406;8.540;2024-01-11T14:25:08;97124.28;;;2.22
15170;BMP280;7685;47.406;8.540;2024-01-11T14:27:39;97121.88;;;2.18
15170;BMP280;7685;47.406;8.540;2024-01-11T14:30:07;97124.03;;;2.14
15170;BMP280;7685;47.406;8.540;2024-01-11T14:32:36;97124.03;;;2.14
15170;BMP280;7685;47.406;8.540;2024-01-11T14:35:05;97120.69;;;2.08
15170;BMP280;7685;47.406;8.540;2024-01-11T14:37:33;97133.78;;;2.08
15170;BMP280;7685;47.406;8.540;2024-01-11T14:40:01;97126.19;;;2.10